Time;durP1;ratioP1;P1;durP2;ratioP2;P2;SDS_P1;SDS_P2;PMS_P1;PMS_P2;Temp;Humidity;BMP_temperature;BMP_pressure;BME280_temperature;BME280_humidity;BME280_pressure;Samples;Min_cycle;Max_cycle;Signal;HPM_P1;HPM_P2
2021/03/09 00:02:03;;;;;;;11.23;4.43;;;;;;;-5.79;72.37;100131.29;1678183;85;21304;-73
2021/03/09 00:04:31;;;;;;;10.97;4.57;;;;;;;-5.72;71.46;100134.06;1682488;85;21247;-73
2021/03/09 00:06:59;;;;;;;10.70;4.33;;;;;;;-5.62;71.71;100135.61;1684540;85;21682;-73
2021/03/09 00:09:27;;;;;;;9.63;4.40;;;;;;;-5.57;72.60;100137.88;1683912;85;21896;-72
2021/03/09 00:11:54;;;;;;;9.50;4.17;;;;;;;-5.45;71.29;100139.53;1680516;85;21202;-74
2021/03/09 00:14:22;;;;;;;8.03;4.00;;;;;;;-5.42;71.30;100128.05;1675723;85;21147;-73
2021/03/09 00:16:50;;;;;;;17.53;5.13;;;;;;;-5.39;70.70;100131.97;1679037;85;21227;-71
2021/03/09 00:19:18;;;;;;;10.63;4.70;;;;;;;-5.34;70.78;100130.39;1677481;84;21686;-73
2021/03/09 00:21:45;;;;;;;9.03;4.23;;;;;;;-5.30;71.50;100130.94;1685904;84;21372;-74
2021/03/09 00:24:13;;;;;;;10.87;4.37;;;;;;;-5.22;70.04;100128.98;1676529;85;21226;-71
2021/03/09 00:26:41;;;;;;;8.43;3.97;;;;;;;-5.21;69.77;100123.91;1674048;85;21202;-71
2021/03/09 00:29:08;;;;;;;14.00;4.87;;;;;;;-5.20;70.21;100119.63;1676002;83;21233;-72
2021/03/09 00:31:37;;;;;;;10.70;4.60;;;;;;;-5.16;70.15;100121.45;1650169;86;21262;-72
2021/03/09 00:34:04;;;;;;;11.60;4.20;;;;;;;-5.12;70.78;100119.42;1691843;84;21376;-72
2021/03/09 00:36:32;;;;;;;15.17;5.60;;;;;;;-5.10;69.80;100121.20;1689499;84;21198;-72
2021/03/09 00:39:00;;;;;;;8.53;4.07;;;;;;;-5.06;70.09;100116.61;1693068;84;21634;-71
2021/03/09 00:41:27;;;;;;;8.67;4.20;;;;;;;-5.03;69.97;100119.66;1675426;84;21223;-71
2021/03/09 00:43:55;;;;;;;10.60;4.53;;;;;;;-4.97;69.57;100117.27;1666140;85;21427;-71
2021/03/09 00:46:23;;;;;;;8.03;4.00;;;;;;;-4.95;69.59;100119.84;1682794;84;21297;-71
2021/03/09 00:48:51;;;;;;;8.60;4.13;;;;;;;-4.93;69.08;100122.91;1666833;85;21231;-72
2021/03/09 00:51:19;;;;;;;11.90;4.37;;;;;;;-4.89;68.54;100120.88;1693396;84;21409;-74
2021/03/09 00:53:47;;;;;;;9.33;3.67;;;;;;;-4.85;69.84;100127.84;1684648;84;21264;-72
2021/03/09 00:56:14;;;;;;;7.43;4.00;;;;;;;-4.85;68.62;100129.12;1669604;82;23946;-72
2021/03/09 00:58:42;;;;;;;7.07;3.30;;;;;;;-4.79;69.17;100130.09;1670885;85;22697;-72
2021/03/09 01:01:10;;;;;;;6.67;3.40;;;;;;;-4.76;69.01;100131.45;1679454;84;21218;-71
2021/03/09 01:03:38;;;;;;;6.23;3.13;;;;;;;-4.74;68.20;100125.55;1658281;86;21285;-72
2021/03/09 01:06:06;;;;;;;8.90;3.53;;;;;;;-4.70;69.36;100126.47;1669918;85;21249;-73
2021/03/09 01:08:34;;;;;;;7.63;3.30;;;;;;;-4.67;68.46;100129.10;1683485;84;21231;-72
2021/03/09 01:11:03;;;;;;;4.63;2.83;;;;;;;-4.64;67.73;100121.48;1684072;84;21777;-71
2021/03/09 01:13:30;;;;;;;6.37;3.43;;;;;;;-4.62;68.11;100130.11;1683723;84;21653;-73
2021/03/09 01:15:58;;;;;;;6.47;3.27;;;;;;;-4.60;67.52;100129.73;1672479;84;21197;-74
2021/03/09 01:18:26;;;;;;;5.70;3.33;;;;;;;-4.57;68.37;100133.65;1685098;84;22228;-71
2021/03/09 01:20:54;;;;;;;7.33;2.97;;;;;;;-4.56;68.07;100134.09;1683945;84;21208;-71
2021/03/09 01:23:22;;;;;;;7.57;3.03;;;;;;;-4.54;67.16;100128.57;1687717;84;21487;-72
2021/03/09 01:25:50;;;;;;;6.43;2.70;;;;;;;-4.52;68.47;100128.20;1665570;85;21199;-73
2021/03/09 01:28:18;;;;;;;5.37;3.00;;;;;;;-4.48;67.20;100136.44;1686868;84;21220;-72
2021/03/09 01:30:46;;;;;;;6.47;2.97;;;;;;;-4.47;67.39;100134.73;1652669;85;21220;-72
2021/03/09 01:33:13;;;;;;;5.83;3.10;;;;;;;-4.47;67.47;100138.16;1678255;85;21212;-72
2021/03/09 01:35:42;;;;;;;6.90;3.10;;;;;;;-4.42;67.01;100138.27;1648213;86;21827;-73
2021/03/09 01:38:09;;;;;;;6.73;3.13;;;;;;;-4.39;68.41;100140.04;1676526;85;21203;-72
2021/03/09 01:40:39;;;;;;;5.20;2.87;;;;;;;-4.39;67.16;100137.47;1675237;85;21451;-72
2021/03/09 01:43:07;;;;;;;5.20;2.83;;;;;;;-4.39;66.81;100142.61;1675670;85;21237;-71
2021/03/09 01:45:34;;;;;;;3.60;2.60;;;;;;;-4.37;67.37;100140.95;1676589;85;21185;-74
2021/03/09 01:48:06;;;;;;;6.03;3.27;;;;;;;-4.35;66.68;100145.71;1651803;86;21826;-73
2021/03/09 01:50:39;;;;;;;5.95;3.10;;;;;;;-4.32;68.23;100148.38;1637553;87;21533;-75
2021/03/09 01:53:07;;;;;;;7.57;3.40;;;;;;;-4.29;67.26;100151.01;1676080;85;21182;-74
2021/03/09 01:55:39;;;;;;;7.00;3.27;;;;;;;-4.28;66.91;100146.30;1633270;86;21648;-76
2021/03/09 01:58:12;;;;;;;6.77;3.30;;;;;;;-4.29;67.32;100145.44;1641748;86;25934;-75
2021/03/09 02:00:39;;;;;;;7.20;3.70;;;;;;;-4.26;66.63;100151.07;1667048;85;21287;-75
2021/03/09 02:03:08;;;;;;;4.87;3.10;;;;;;;-4.26;66.88;100149.78;1675648;84;21231;-73
2021/03/09 02:05:39;;;;;;;5.17;2.60;;;;;;;-4.27;67.63;100155.35;1674356;84;21199;-72
2021/03/09 02:08:07;;;;;;;7.63;3.23;;;;;;;-4.24;66.56;100157.12;1639489;87;21199;-73
2021/03/09 02:10:37;;;;;;;9.40;3.17;;;;;;;-4.21;68.10;100154.61;1653229;84;21210;-73
2021/03/09 02:13:47;;;;;;;6.45;3.10;;;;;;;-4.20;67.26;100152.50;1654684;86;21464;-71
2021/03/09 02:16:29;;;;;;;6.80;3.60;;;;;;;-4.20;66.73;100161.51;1653815;85;21237;-71
2021/03/09 02:19:13;;;;;;;7.73;3.37;;;;;;;-4.20;67.29;100166.66;1669398;84;21214;-72
2021/03/09 02:22:04;;;;;;;9.33;3.57;;;;;;;-4.16;67.53;100171.04;1842567;76;22768;-71
2021/03/09 02:25:12;;;;;;;6.03;3.17;;;;;;;-4.21;66.92;100177.75;1743028;81;21232;-70
2021/03/09 02:28:04;;;;;;;6.37;2.87;;;;;;;-4.20;67.77;100175.65;1759679;81;21374;-70
2021/03/09 02:30:33;;;;;;;4.97;2.90;;;;;;;-4.19;68.56;100173.94;1806723;79;21262;-71
2021/03/09 02:33:20;;;;;;;5.93;2.90;;;;;;;-4.19;68.14;100167.09;1781385;79;21610;-73
2021/03/09 02:36:08;;;;;;;5.67;2.90;;;;;;;-4.16;67.85;100182.61;1774151;80;21229;-71
2021/03/09 02:38:57;;;;;;;4.43;2.33;;;;;;;-4.17;68.12;100180.86;1775722;80;21592;-71
2021/03/09 02:41:25;;;;;;;6.50;2.67;;;;;;;-4.18;67.70;100182.98;1778697;80;21222;-71
2021/03/09 02:43:54;;;;;;;5.50;3.10;;;;;;;-4.19;67.53;100186.37;1777451;80;21194;-70
2021/03/09 02:46:24;;;;;;;6.60;3.10;;;;;;;-4.17;68.48;100185.14;1778429;79;21182;-70
2021/03/09 02:48:53;;;;;;;5.67;2.80;;;;;;;-4.17;68.18;100182.14;1770276;80;21171;-70
2021/03/09 02:51:26;;;;;;;8.23;3.33;;;;;;;-4.15;68.35;100177.91;1752338;80;21130;-70
2021/03/09 02:53:56;;;;;;;6.20;3.23;;;;;;;-4.13;70.57;100180.10;1740772;81;21369;-71
2021/03/09 02:56:24;;;;;;;6.13;3.30;;;;;;;-4.12;68.87;100181.82;1722590;82;21977;-71
2021/03/09 02:58:54;;;;;;;7.13;3.03;;;;;;;-4.09;69.49;100189.63;1707177;82;21200;-71
2021/03/09 03:01:26;;;;;;;6.15;3.15;;;;;;;-4.12;69.07;100189.54;1701079;82;21285;-69
2021/03/09 03:03:54;;;;;;;6.00;3.03;;;;;;;-4.14;68.41;100189.05;1713964;82;21163;-71
2021/03/09 03:06:23;;;;;;;6.33;2.90;;;;;;;-4.12;69.23;100200.25;1719541;82;22469;-71
2021/03/09 03:08:52;;;;;;;6.30;2.87;;;;;;;-4.14;69.13;100198.95;1705228;82;21232;-71
2021/03/09 03:11:20;;;;;;;6.10;3.00;;;;;;;-4.09;69.76;100206.77;1688825;82;21207;-71
2021/03/09 03:13:48;;;;;;;7.40;3.13;;;;;;;-4.06;71.16;100208.12;1709413;82;21220;-70
2021/03/09 03:16:17;;;;;;;5.67;2.80;;;;;;;-4.06;69.52;100208.12;1717997;81;21229;-71
2021/03/09 03:18:46;;;;;;;5.50;2.80;;;;;;;-4.05;69.38;100204.31;1708018;82;21656;-71
2021/03/09 03:21:14;;;;;;;4.57;3.10;;;;;;;-4.08;70.37;100208.08;1719934;82;21215;-72
2021/03/09 03:23:43;;;;;;;4.13;2.83;;;;;;;-4.09;69.04;100217.92;1713624;82;21210;-72
2021/03/09 03:26:12;;;;;;;5.40;2.90;;;;;;;-4.09;69.64;100217.92;1711239;82;21688;-69
2021/03/09 03:28:43;;;;;;;4.83;2.90;;;;;;;-4.11;69.79;100216.16;1721031;82;21227;-68
2021/03/09 03:31:11;;;;;;;4.20;2.60;;;;;;;-4.10;70.25;100215.30;1706357;84;21440;-69
2021/03/09 03:33:39;;;;;;;4.03;2.60;;;;;;;-4.14;71.03;100218.24;1707284;82;21184;-70
2021/03/09 03:36:07;;;;;;;3.80;2.90;;;;;;;-4.18;70.58;100232.28;1705861;82;21646;-68
2021/03/09 03:38:39;;;;;;;6.13;2.77;;;;;;;-4.18;71.66;100228.42;1712940;82;21219;-70
2021/03/09 03:41:08;;;;;;;6.47;2.90;;;;;;;-4.20;71.78;100229.66;1706977;82;21130;-70
2021/03/09 03:43:37;;;;;;;4.97;3.20;;;;;;;-4.18;71.92;100229.28;1707773;82;22323;-71
2021/03/09 03:46:06;;;;;;;4.27;2.80;;;;;;;-4.20;73.29;100232.23;1713073;81;21243;-73
2021/03/09 03:48:38;;;;;;;5.57;3.07;;;;;;;-4.22;72.58;100232.60;1708981;82;21240;-72
2021/03/09 03:51:10;;;;;;;5.07;2.67;;;;;;;-4.22;72.88;100239.03;1710489;82;21897;-70
2021/03/09 03:54:07;;;;;;;4.17;2.60;;;;;;;-4.24;73.24;100247.13;1705553;84;21161;-70
2021/03/09 03:56:52;;;;;;;5.63;2.50;;;;;;;-4.26;73.15;100247.50;1703778;82;42563;-71
2021/03/09 03:59:34;;;;;;;4.30;2.60;;;;;;;-4.26;73.56;100247.50;1712336;82;21233;-70
2021/03/09 04:02:11;;;;;;;5.97;2.97;;;;;;;-4.28;74.58;100247.88;1711303;82;21194;-70
2021/03/09 04:04:41;;;;;;;3.33;2.30;;;;;;;-4.28;73.52;100244.02;1711758;82;21219;-70
2021/03/09 04:07:09;;;;;;;6.00;3.10;;;;;;;-4.28;73.42;100251.73;1707871;84;21220;-70
2021/03/09 04:09:39;;;;;;;5.17;2.50;;;;;;;-4.29;73.63;100257.72;1721445;82;21866;-69
2021/03/09 04:12:10;;;;;;;3.77;2.77;;;;;;;-4.31;72.82;100258.95;1706254;82;21239;-69
2021/03/09 04:14:38;;;;;;;4.63;2.50;;;;;;;-4.29;72.60;100268.87;1707131;82;21219;-69
2021/03/09 04:17:05;;;;;;;4.77;2.43;;;;;;;-4.30;72.09;100273.57;1686743;84;21202;-68
2021/03/09 04:19:33;;;;;;;3.80;2.33;;;;;;;-4.33;70.73;100272.19;1720140;82;21190;-67
2021/03/09 04:22:03;;;;;;;3.17;2.37;;;;;;;-4.34;72.17;100267.02;1718730;82;21402;-69
2021/03/09 04:24:31;;;;;;;4.17;2.77;;;;;;;-4.34;71.00;100272.17;1718500;81;21188;-70
2021/03/09 04:26:58;;;;;;;4.80;2.90;;;;;;;-4.34;70.23;100285.02;1700084;82;21217;-68
2021/03/09 04:29:26;;;;;;;4.77;2.50;;;;;;;-4.35;71.73;100288.41;1659763;83;21650;-69
2021/03/09 04:31:54;;;;;;;4.27;2.53;;;;;;;-4.32;71.08;100288.51;1715554;82;21635;-69
2021/03/09 04:34:22;;;;;;;3.00;2.30;;;;;;;-4.32;70.74;100295.80;1685670;82;22128;-67
2021/03/09 04:36:49;;;;;;;4.80;2.63;;;;;;;-4.34;70.72;100292.73;1681284;83;21208;-68
2021/03/09 04:39:18;;;;;;;4.53;2.70;;;;;;;-4.30;70.98;100294.53;1685922;83;21636;-68
2021/03/09 04:41:45;;;;;;;3.73;2.00;;;;;;;-4.28;72.16;100295.44;1703513;83;21209;-68
2021/03/09 04:44:13;;;;;;;4.23;2.70;;;;;;;-4.25;70.78;100295.55;1690208;83;21198;-71
2021/03/09 04:46:42;;;;;;;6.30;2.70;;;;;;;-4.24;70.59;100294.27;1709219;82;21983;-68
2021/03/09 04:49:12;;;;;;;4.33;2.50;;;;;;;-4.28;70.37;100305.34;1712089;83;21178;-67
2021/03/09 04:51:40;;;;;;;4.50;2.60;;;;;;;-4.29;69.90;100304.00;1675296;81;21144;-68
2021/03/09 04:54:09;;;;;;;3.57;2.53;;;;;;;-4.29;71.00;100306.58;1688762;82;21200;-68
2021/03/09 04:56:37;;;;;;;4.57;2.87;;;;;;;-4.28;70.37;100308.30;1703316;82;21809;-68
2021/03/09 04:59:05;;;;;;;3.80;2.53;;;;;;;-4.28;69.96;100307.91;1707981;83;21938;-68
2021/03/09 05:01:33;;;;;;;4.93;2.87;;;;;;;-4.28;70.90;100305.73;1718388;82;21184;-67
2021/03/09 05:04:05;;;;;;;5.50;2.77;;;;;;;-4.25;70.33;100310.97;1713542;82;21184;-68
2021/03/09 05:06:32;;;;;;;3.57;2.80;;;;;;;-4.24;70.03;100318.70;1712800;82;21215;-68
2021/03/09 05:11:43;;;;;;;4.50;3.37;;;;;;;-4.21;69.78;100320.48;1772608;79;22649;-68
2021/03/09 05:14:11;;;;;;;4.73;3.10;;;;;;;-4.27;70.10;100330.62;1705423;82;22147;-68
2021/03/09 05:16:38;;;;;;;4.00;3.23;;;;;;;-4.29;70.14;100322.87;1714296;83;22143;-67
2021/03/09 05:19:06;;;;;;;8.60;3.27;;;;;;;-4.29;70.43;100332.29;1705380;83;21414;-68
2021/03/09 05:21:34;;;;;;;5.73;3.63;;;;;;;-4.28;70.46;100341.73;1707985;83;21172;-67
2021/03/09 05:24:13;;;;;;;5.67;3.70;;;;;;;-4.25;70.61;100344.41;1840132;76;23256;-67
2021/03/09 05:26:42;;;;;;;6.43;4.20;;;;;;;-4.37;70.46;100350.48;1797104;78;21237;-68
2021/03/09 05:29:12;;;;;;;7.50;4.07;;;;;;;-4.44;70.64;100351.63;1799500;78;22225;-68
2021/03/09 05:31:45;;;;;;;6.37;3.63;;;;;;;-4.40;70.82;100356.84;1751979;80;21182;-67
2021/03/09 05:34:12;;;;;;;5.13;3.33;;;;;;;-4.42;70.83;100364.50;1766669;80;21621;-68
2021/03/09 05:36:40;;;;;;;6.73;3.80;;;;;;;-4.41;70.31;100370.54;1761767;80;21608;-67
2021/03/09 05:39:08;;;;;;;6.07;3.20;;;;;;;-4.39;70.21;100377.85;1770104;80;21672;-69
2021/03/09 05:41:37;;;;;;;6.53;3.50;;;;;;;-4.40;69.84;100374.84;1778427;80;21793;-66
2021/03/09 05:44:07;;;;;;;6.58;3.50;;;;;;;-4.46;69.47;100373.84;1747623;81;21246;-69
2021/03/09 05:46:39;;;;;;;5.20;3.83;;;;;;;-4.49;69.46;100380.17;1752584;80;21677;-68
2021/03/09 05:49:09;;;;;;;4.97;3.77;;;;;;;-4.49;69.57;100384.02;1718806;80;21235;-68
2021/03/09 05:51:38;;;;;;;7.60;3.50;;;;;;;-4.50;68.65;100387.44;1760947;80;21199;-69
2021/03/09 05:54:06;;;;;;;6.33;3.30;;;;;;;-4.49;68.06;100394.31;1763876;80;21810;-70
2021/03/09 05:56:34;;;;;;;8.13;4.13;;;;;;;-4.46;67.73;100399.56;1763976;79;26284;-71
2021/03/09 05:59:03;;;;;;;7.30;3.93;;;;;;;-4.40;66.89;100401.84;1712495;81;21189;-70
2021/03/09 06:01:33;;;;;;;7.87;4.00;;;;;;;-4.36;66.74;100403.67;1681261;83;21833;-72
2021/03/09 06:04:06;;;;;;;10.07;4.10;;;;;;;-4.35;66.13;100412.69;1679382;83;21224;-71
2021/03/09 06:06:38;;;;;;;6.40;3.47;;;;;;;-4.31;66.62;100411.95;1679018;83;21434;-70
2021/03/09 06:09:38;;;;;;;6.87;3.87;;;;;;;-4.21;66.25;100418.20;1693217;83;21716;-71
2021/03/09 06:12:24;;;;;;;6.87;3.17;;;;;;;-4.14;65.43;100424.39;1651067;84;21252;-70
2021/03/09 06:15:01;;;;;;;9.00;3.30;;;;;;;-4.01;67.13;100427.34;1669636;83;21746;-70
2021/03/09 06:17:38;;;;;;;6.30;3.03;;;;;;;-3.92;66.65;100427.14;1682685;83;21200;-68
2021/03/09 06:20:24;;;;;;;7.27;3.60;;;;;;;-3.88;63.63;100431.54;1681259;83;22320;-69
2021/03/09 06:22:55;;;;;;;;;;;;;;;-3.84;64.92;100432.08;1677524;83;21226;-70
2021/03/09 06:25:39;;;;;;;5.30;2.90;;;;;;;-3.76;64.25;100436.13;1656235;85;20335;-72
2021/03/09 06:30:47;;;;;;;5.70;3.53;;;;;;;-3.54;64.06;100442.67;1852788;76;22828;-71
2021/03/09 06:33:14;;;;;;;8.03;3.17;;;;;;;-3.55;64.70;100439.66;1840943;77;21161;-70
2021/03/09 06:35:46;;;;;;;5.58;3.20;;;;;;;-3.51;62.06;100445.34;1796789;77;22276;-70
2021/03/09 06:38:30;;;;;;;12.95;3.62;;;;;;;-3.47;63.49;100445.88;1836421;77;21070;-69
2021/03/09 06:41:16;;;;;;;6.80;3.52;;;;;;;-3.43;60.36;100447.68;1828120;77;21160;-72
2021/03/09 06:43:59;;;;;;;8.85;3.83;;;;;;;-3.40;60.32;100445.20;1841144;77;21781;-68
2021/03/09 06:46:27;;;;;;;12.23;3.15;;;;;;;-3.30;62.29;100451.44;1825937;78;21106;-70
2021/03/09 06:49:01;;;;;;;10.43;3.95;;;;;;;-3.24;62.74;100452.46;1826674;77;21428;-69
2021/03/09 06:51:34;;;;;;;18.98;3.75;;;;;;;-3.22;59.67;100455.05;1809348;77;21059;-72
2021/03/09 06:54:13;;;;;;;18.23;3.90;;;;;;;-3.19;60.37;100452.56;1810514;77;21166;-71
2021/03/09 06:56:46;;;;;;;6.05;3.10;;;;;;;-3.08;60.51;100457.56;1824752;78;21131;-70
2021/03/09 06:59:31;;;;;;;4.40;2.60;;;;;;;-2.95;58.90;100458.27;1817250;78;21220;-71
2021/03/09 07:02:26;;;;;;;7.15;3.05;;;;;;;-2.90;60.83;100460.09;1816233;77;21645;-69
2021/03/09 07:07:37;;;;;;;6.13;3.10;;;;;;;-2.58;59.37;100460.80;1783966;77;22772;-69
2021/03/09 07:10:18;;;;;;;6.12;2.92;;;;;;;-2.47;62.82;100469.64;1754202;80;21123;-68
2021/03/09 07:12:50;;;;;;;11.65;4.35;;;;;;;-2.35;60.27;100476.76;1768396;80;21843;-69
2021/03/09 07:15:21;;;;;;;8.83;4.03;;;;;;;-2.26;57.88;100470.50;1766826;79;21184;-70
2021/03/09 07:17:51;;;;;;;17.75;4.67;;;;;;;-2.26;57.11;100476.95;1754955;80;21554;-69
2021/03/09 07:20:20;;;;;;;68.67;5.28;;;;;;;-2.25;56.55;100483.88;1781075;80;21122;-70
2021/03/09 07:22:55;;;;;;;17.95;3.45;;;;;;;-2.21;54.37;100479.62;1779072;80;21196;-68
2021/03/09 07:25:25;;;;;;;25.72;4.37;;;;;;;-2.23;58.21;100480.01;1765185;80;22277;-70
2021/03/09 07:27:58;;;;;;;5.65;3.35;;;;;;;-2.21;55.27;100479.62;1780856;80;21205;-68
2021/03/09 07:30:34;;;;;;;6.92;2.75;;;;;;;-2.07;56.33;100484.67;1749607;80;21171;-70
2021/03/09 07:33:03;;;;;;;21.42;3.55;;;;;;;-2.03;56.23;100481.28;1768888;80;22320;-73
2021/03/09 07:35:31;;;;;;;12.95;3.75;;;;;;;-1.98;53.73;100488.72;1767452;80;21134;-72
2021/03/09 07:38:00;;;;;;;4.58;2.77;;;;;;;-1.94;56.44;100485.33;1758623;79;21181;-69
2021/03/09 07:40:31;;;;;;;10.43;3.37;;;;;;;-1.92;55.79;100486.23;1757598;80;21220;-68
2021/03/09 07:42:58;;;;;;;28.38;3.95;;;;;;;-1.85;54.20;100485.07;1750626;80;21161;-69
2021/03/09 07:45:30;;;;;;;6.17;3.08;;;;;;;-1.80;54.93;100483.44;1757784;80;21167;-69
2021/03/09 07:48:12;;;;;;;7.62;3.30;;;;;;;-1.71;53.97;100484.91;1745207;80;21182;-69
2021/03/09 07:50:44;;;;;;;5.78;3.00;;;;;;;-1.62;53.91;100481.19;1774498;80;21204;-70
2021/03/09 07:56:13;;;;;;;5.10;2.62;;;;;;;-1.41;53.53;100483.70;1775789;80;21635;-70
2021/03/09 07:58:42;;;;;;;7.85;2.90;;;;;;;-1.29;53.14;100479.63;1771705;80;21153;-71
2021/03/09 08:01:10;;;;;;;17.60;3.25;;;;;;;-1.21;55.01;100475.88;1766122;80;21158;-70
2021/03/09 08:03:42;;;;;;;12.58;3.40;;;;;;;-1.12;53.25;100473.44;1758702;80;21205;-69
2021/03/09 08:06:15;;;;;;;8.85;4.20;;;;;;;-1.11;52.49;100472.58;1763892;80;21191;-71
2021/03/09 08:08:56;;;;;;;8.65;3.92;;;;;;;-1.06;53.61;100480.00;1746833;81;21209;-70
2021/03/09 08:11:29;;;;;;;8.78;3.80;;;;;;;-1.12;55.05;100479.90;1695994;84;21190;-71
2021/03/09 08:14:11;;;;;;;20.35;5.50;;;;;;;-1.32;56.49;100485.16;1702243;83;21817;-68
2021/03/09 08:16:42;;;;;;;9.08;4.17;;;;;;;-1.58;58.43;100492.03;1700464;83;21466;-71
2021/03/09 08:19:18;;;;;;;8.48;4.15;;;;;;;-1.67;59.32;100497.03;1729514;81;21163;-70
2021/03/09 08:22:03;;;;;;;7.22;3.75;;;;;;;-1.65;60.63;100494.06;1744752;81;21202;-70
2021/03/09 08:24:48;;;;;;;17.75;6.92;;;;;;;-1.63;60.36;100493.67;1749825;81;21170;-70
2021/03/09 08:27:32;;;;;;;8.08;3.83;;;;;;;-1.58;61.17;100493.33;1739611;81;21150;-69
2021/03/09 08:30:25;;;;;;;9.73;3.80;;;;;;;-1.66;62.39;100492.30;1720210;81;21218;-70
2021/03/09 08:32:52;;;;;;;7.80;3.87;;;;;;;-1.68;63.10;100497.86;1739036;81;21793;-69
2021/03/09 08:35:34;;;;;;;8.98;4.33;;;;;;;-1.60;61.75;100497.59;1744334;81;21584;-70
2021/03/09 08:38:14;;;;;;;12.98;4.65;;;;;;;-1.60;63.50;100503.19;1743857;81;21737;-71
2021/03/09 08:41:06;;;;;;;7.20;3.80;;;;;;;-1.60;61.39;100506.63;1735601;81;21374;-71
2021/03/09 08:43:37;;;;;;;9.40;4.12;;;;;;;-1.55;60.08;100515.33;1751894;81;21713;-71
2021/03/09 08:46:05;;;;;;;6.35;3.27;;;;;;;-1.61;59.69;100515.23;1756895;81;21745;-69
2021/03/09 08:48:49;;;;;;;4.25;3.08;;;;;;;-1.67;58.86;100513.82;1758204;81;21151;-71
2021/03/09 08:51:42;;;;;;;8.13;4.05;;;;;;;-1.62;55.70;100520.36;1757406;80;21198;-69
2021/03/09 08:54:29;;;;;;;4.85;3.17;;;;;;;-1.64;58.36;100522.91;1757519;81;21138;-70
2021/03/09 08:57:00;;;;;;;9.80;3.70;;;;;;;-1.60;55.95;100517.39;1757393;81;22379;-69
2021/03/09 08:59:31;;;;;;;5.12;2.98;;;;;;;-1.45;53.40;100518.94;1757831;81;21159;-70
2021/03/09 09:02:08;;;;;;;5.00;3.12;;;;;;;-1.34;54.13;100519.14;1751009;81;22290;-70
2021/03/09 09:04:38;;;;;;;5.05;3.40;;;;;;;-1.27;53.10;100510.65;1754693;80;21139;-71
2021/03/09 09:07:27;;;;;;;8.88;3.85;;;;;;;-1.16;50.63;100509.55;1657075;82;21658;-72
2021/03/09 09:10:08;;;;;;;4.87;2.90;;;;;;;-1.15;49.41;100512.17;1734695;81;21375;-71
2021/03/09 09:12:41;;;;;;;4.33;2.58;;;;;;;-1.14;51.33;100510.02;1730618;80;21210;-72
2021/03/09 09:15:25;;;;;;;5.90;3.25;;;;;;;-0.97;49.46;100511.57;1653567;85;21198;-71
2021/03/09 09:18:04;;;;;;;6.00;3.52;;;;;;;-0.80;51.77;100513.14;1738050;81;21630;-72
2021/03/09 09:20:40;;;;;;;4.92;3.20;;;;;;;-0.60;49.99;100515.14;1747247;81;21210;-72
2021/03/09 09:23:27;;;;;;;6.37;2.60;;;;;;;-0.48;47.89;100523.10;1709945;81;21397;-72
2021/03/09 09:25:57;;;;;;;7.45;2.77;;;;;;;-0.51;50.70;100516.57;1744756;81;28826;-72
2021/03/09 09:28:30;;;;;;;14.95;5.33;;;;;;;-0.38;49.63;100520.21;1748501;81;21095;-75
2021/03/09 09:31:01;;;;;;;10.40;3.40;;;;;;;-0.26;46.35;100522.52;1749251;80;21157;-75
2021/03/09 09:33:32;;;;;;;5.60;3.00;;;;;;;-0.12;47.86;100522.70;1742532;81;21178;-75
2021/03/09 09:36:00;;;;;;;4.28;2.72;;;;;;;0.04;44.92;100519.88;1727892;82;21373;-69
2021/03/09 09:38:27;;;;;;;11.80;3.02;;;;;;;0.10;43.49;100521.26;1735332;81;21476;-71
2021/03/09 09:40:58;;;;;;;5.65;3.25;;;;;;;0.14;46.83;100516.56;1753904;81;21602;-73
2021/03/09 09:43:27;;;;;;;;;;;;;;;0.28;40.77;100514.56;1747721;81;21222;-77
2021/03/09 09:46:08;;;;;;;7.40;3.30;;;;;;;0.27;43.78;100519.28;1743954;80;20317;-74
2021/03/09 09:48:38;;;;;;;4.50;2.90;;;;;;;0.20;42.31;100516.61;1733117;81;21408;-72
2021/03/09 09:51:17;;;;;;;8.03;2.60;;;;;;;0.24;41.87;100520.55;1750232;81;21174;-73
2021/03/09 09:53:47;;;;;;;6.00;2.42;;;;;;;0.11;40.51;100530.75;1729574;81;21179;-72
2021/03/09 09:56:20;;;;;;;3.95;2.75;;;;;;;-0.05;41.88;100530.12;1688410;84;21654;-73
2021/03/09 09:59:00;;;;;;;5.37;2.72;;;;;;;-0.09;39.28;100525.75;1716191;81;21272;-72
2021/03/09 10:01:40;;;;;;;4.35;2.30;;;;;;;-0.25;43.86;100532.05;1727613;82;22245;-73
2021/03/09 10:04:13;;;;;;;10.72;2.98;;;;;;;-0.22;40.57;100534.66;1706670;82;21296;-72
2021/03/09 10:06:46;;;;;;;5.03;2.33;;;;;;;-0.20;41.42;100537.72;1745285;80;21207;-72
2021/03/09 10:09:22;;;;;;;4.67;2.62;;;;;;;-0.18;43.94;100533.40;1750344;80;22400;-72
2021/03/09 10:11:58;;;;;;;7.20;2.47;;;;;;;-0.08;40.96;100537.86;1724775;81;21689;-73
2021/03/09 10:14:28;;;;;;;4.92;2.60;;;;;;;0.06;41.65;100535.02;1709599;82;21386;-73
2021/03/09 10:16:56;;;;;;;3.22;2.00;;;;;;;0.17;47.15;100532.13;1722995;81;21606;-73
2021/03/09 10:19:28;;;;;;;3.95;2.20;;;;;;;0.36;38.52;100527.16;1709007;81;21226;-72
2021/03/09 10:21:58;;;;;;;4.50;2.85;;;;;;;0.44;38.21;100528.52;1738041;80;21358;-66
2021/03/09 10:24:31;;;;;;;3.58;2.52;;;;;;;0.81;40.16;100524.16;1719605;82;21216;-68
2021/03/09 10:27:00;;;;;;;6.95;2.35;;;;;;;1.51;37.12;100520.78;1716678;82;22271;-72
2021/03/09 10:29:31;;;;;;;6.50;2.30;;;;;;;2.24;37.01;100526.32;1721617;82;21290;-69
2021/03/09 10:32:01;;;;;;;4.55;2.37;;;;;;;2.78;34.82;100519.92;1674776;83;21213;-68
2021/03/09 10:34:43;;;;;;;4.25;2.58;;;;;;;3.15;35.50;100527.33;1706072;83;21600;-68
2021/03/09 10:37:18;;;;;;;6.20;2.42;;;;;;;3.46;37.33;100526.44;1755756;81;21155;-69
2021/03/09 10:39:57;;;;;;;5.70;2.83;;;;;;;3.51;31.90;100517.73;1752674;81;21363;-68
2021/03/09 10:42:44;;;;;;;5.22;2.40;;;;;;;3.44;33.61;100521.22;1752132;79;21174;-67
2021/03/09 10:45:24;;;;;;;9.38;2.60;;;;;;;3.25;36.08;100527.33;1752473;81;21178;-68
2021/03/09 10:48:00;;;;;;;5.87;2.75;;;;;;;2.71;34.07;100533.38;1755661;81;21182;-66
2021/03/09 10:50:32;;;;;;;7.90;3.20;;;;;;;2.15;36.59;100537.98;1697616;84;21165;-65
2021/03/09 10:53:00;;;;;;;5.78;2.80;;;;;;;1.28;38.84;100538.80;1695846;84;21440;-66
2021/03/09 10:55:29;;;;;;;5.28;3.02;;;;;;;0.87;41.05;100536.30;1713865;83;21174;-65
2021/03/09 10:57:57;;;;;;;5.53;3.22;;;;;;;0.87;41.05;100536.30;1705768;83;21642;-66
2021/03/09 11:00:24;;;;;;;6.25;2.87;;;;;;;0.62;41.88;100539.08;1704241;83;21199;-67
2021/03/09 11:02:52;;;;;;;4.33;2.50;;;;;;;0.38;41.79;100551.36;1740894;81;21148;-67
2021/03/09 11:05:20;;;;;;;12.82;3.00;;;;;;;0.12;46.19;100555.81;1742380;81;21344;-66
2021/03/09 11:07:47;;;;;;;4.05;2.37;;;;;;;-0.11;42.13;100565.02;1756480;80;21190;-67
2021/03/09 11:10:16;;;;;;;5.87;2.52;;;;;;;-0.29;42.57;100555.28;1684191;84;21151;-66
2021/03/09 11:12:45;;;;;;;3.62;2.45;;;;;;;-0.48;41.85;100558.89;1694608;83;21215;-69
2021/03/09 11:15:14;;;;;;;20.72;3.58;;;;;;;-0.56;42.03;100564.80;1698806;83;21183;-67
2021/03/09 11:17:41;;;;;;;2.98;2.27;;;;;;;-0.61;42.48;100563.43;1735635;81;21193;-71
2021/03/09 11:20:12;;;;;;;15.03;3.20;;;;;;;-0.60;41.97;100566.88;1714629;83;21202;-70
2021/03/09 11:22:40;;;;;;;6.15;2.95;;;;;;;-0.55;41.78;100569.11;1702103;83;21642;-70
2021/03/09 11:25:11;;;;;;;5.42;2.50;;;;;;;-0.52;41.66;100562.70;1713644;83;21230;-69
2021/03/09 11:27:38;;;;;;;6.17;2.75;;;;;;;-0.50;40.88;100559.72;1726617;83;21195;-69
2021/03/09 11:30:08;;;;;;;4.37;2.02;;;;;;;-0.40;40.69;100562.87;1706402;81;21368;-69
2021/03/09 11:32:37;;;;;;;6.87;2.87;;;;;;;-0.35;41.29;100559.06;1715322;83;21224;-69
2021/03/09 11:35:07;;;;;;;4.22;2.58;;;;;;;-0.30;40.00;100557.00;1698527;83;21202;-69
2021/03/09 11:37:35;;;;;;;3.70;2.50;;;;;;;-0.18;39.73;100552.81;1651923;86;21127;-67
2021/03/09 11:40:08;;;;;;;5.13;2.33;;;;;;;-0.03;38.15;100568.56;1711528;83;21147;-68
2021/03/09 11:42:39;;;;;;;;;;;;;;;-0.03;38.15;100568.56;1714254;83;21655;-68
2021/03/09 11:45:09;;;;;;;;;;;;;;;-0.06;38.68;100559.04;1714274;83;20269;-69
2021/03/09 11:47:37;;;;;;;6.37;2.45;;;;;;;-0.03;38.04;100571.15;1714611;83;20264;-69
2021/03/09 11:50:07;;;;;;;5.35;2.22;;;;;;;-0.06;38.76;100568.53;1713667;83;21182;-68
2021/03/09 11:52:35;;;;;;;4.35;2.77;;;;;;;0.07;39.80;100562.66;1663973;86;21155;-68
2021/03/09 11:55:07;;;;;;;5.03;2.77;;;;;;;0.36;37.81;100567.31;1706930;83;21375;-68
2021/03/09 11:57:34;;;;;;;5.22;2.50;;;;;;;0.71;42.45;100564.23;1714941;83;21195;-68
2021/03/09 12:00:08;;;;;;;10.95;2.85;;;;;;;1.22;36.21;100560.36;1707392;82;21222;-72
2021/03/09 12:02:38;;;;;;;8.78;2.58;;;;;;;1.57;36.20;100554.58;1702029;83;21178;-70